sensor_id;sensor_type;location;lat;lon;timestamp;P1;durP1;ratioP1;P2;durP2;ratioP2
62673;SDS011;62269;47.594;17.638;2023-06-10T00:00:11;12.45;;;9.10;;
62673;SDS011;62269;47.594;17.638;2023-06-10T00:01:11;12.80;;;9.10;;
62673;SDS011;62269;47.594;17.638;2023-06-10T00:02:08;11.85;;;8.93;;
62673;SDS011;62269;47.594;17.638;2023-06-10T00:03:05;10.30;;;9.20;;
62673;SDS011;62269;47.594;17.638;2023-06-10T00:04:02;12.02;;;8.98;;
62673;SDS011;62269;47.594;17.638;2023-06-10T00:04:59;9.93;;;8.45;;
62673;SDS011;62269;47.594;17.638;2023-06-10T00:05:56;10.70;;;8.80;;
62673;SDS011;62269;47.594;17.638;2023-06-10T00:06:53;9.82;;;8.82;;
62673;SDS011;62269;47.594;17.638;2023-06-10T00:07:51;9.82;;;8.27;;
62673;SDS011;62269;47.594;17.638;2023-06-10T00:08:51;13.20;;;9.33;;
62673;SDS011;62269;47.594;17.638;2023-06-10T00:09:48;13.23;;;9.95;;
62673;SDS011;62269;47.594;17.638;2023-06-10T00:10:46;12.80;;;9.25;;
62673;SDS011;62269;47.594;17.638;2023-06-10T00:11:43;12.07;;;8.85;;
62673;SDS011;62269;47.594;17.638;2023-06-10T00:12:40;10.68;;;9.20;;
62673;SDS011;62269;47.594;17.638;2023-06-10T00:13:38;10.88;;;9.18;;
62673;SDS011;62269;47.594;17.638;2023-06-10T00:14:36;11.32;;;9.80;;
62673;SDS011;62269;47.594;17.638;2023-06-10T00:15:34;11.45;;;9.82;;
62673;SDS011;62269;47.594;17.638;2023-06-10T00:16:34;9.98;;;8.98;;
62673;SDS011;62269;47.594;17.638;2023-06-10T00:17:32;10.95;;;9.40;;
62673;SDS011;62269;47.594;17.638;2023-06-10T00:18:30;10.50;;;9.35;;
62673;SDS011;62269;47.594;17.638;2023-06-10T00:19:27;10.50;;;9.07;;
62673;SDS011;62269;47.594;17.638;2023-06-10T00:20:26;12.35;;;9.48;;
62673;SDS011;62269;47.594;17.638;2023-06-10T00:21:23;11.12;;;9.20;;
62673;SDS011;62269;47.594;17.638;2023-06-10T00:22:21;12.23;;;9.10;;
62673;SDS011;62269;47.594;17.638;2023-06-10T00:23:18;11.12;;;9.32;;
62673;SDS011;62269;47.594;17.638;2023-06-10T00:24:16;11.63;;;9.40;;
62673;SDS011;62269;47.594;17.638;2023-06-10T00:25:13;11.63;;;8.80;;
62673;SDS011;62269;47.594;17.638;2023-06-10T00:26:10;10.40;;;8.60;;
62673;SDS011;62269;47.594;17.638;2023-06-10T00:27:07;10.57;;;9.50;;
62673;SDS011;62269;47.594;17.638;2023-06-10T00:28:04;13.10;;;10.25;;
62673;SDS011;62269;47.594;17.638;2023-06-10T00:29:01;10.52;;;9.45;;
62673;SDS011;62269;47.594;17.638;2023-06-10T00:29:58;13.02;;;9.38;;
62673;SDS011;62269;47.594;17.638;2023-06-10T00:30:55;11.70;;;9.02;;
62673;SDS011;62269;47.594;17.638;2023-06-10T00:31:53;10.93;;;9.43;;
62673;SDS011;62269;47.594;17.638;2023-06-10T00:32:54;12.77;;;9.68;;
62673;SDS011;62269;47.594;17.638;2023-06-10T00:33:51;12.85;;;9.90;;
62673;SDS011;62269;47.594;17.638;2023-06-10T00:34:48;10.68;;;8.73;;
62673;SDS011;62269;47.594;17.638;2023-06-10T00:35:45;10.27;;;8.95;;
62673;SDS011;62269;47.594;17.638;2023-06-10T00:36:42;10.30;;;9.20;;
62673;SDS011;62269;47.594;17.638;2023-06-10T00:37:39;9.98;;;8.98;;
62673;SDS011;62269;47.594;17.638;2023-06-10T00:38:36;12.57;;;8.85;;
62673;SDS011;62269;47.594;17.638;2023-06-10T00:39:33;10.13;;;9.13;;
62673;SDS011;62269;47.594;17.638;2023-06-10T00:40:30;13.70;;;9.48;;
62673;SDS011;62269;47.594;17.638;2023-06-10T00:41:30;10.45;;;8.77;;
62673;SDS011;62269;47.594;17.638;2023-06-10T00:42:27;10.65;;;9.55;;
62673;SDS011;62269;47.594;17.638;2023-06-10T00:43:24;11.25;;;9.60;;
62673;SDS011;62269;47.594;17.638;2023-06-10T00:44:21;15.73;;;9.30;;
62673;SDS011;62269;47.594;17.638;2023-06-10T00:45:18;11.70;;;8.85;;
62673;SDS011;62269;47.594;17.638;2023-06-10T00:46:15;14.05;;;9.88;;
62673;SDS011;62269;47.594;17.638;2023-06-10T00:47:13;12.55;;;9.45;;
62673;SDS011;62269;47.594;17.638;2023-06-10T00:48:10;11.70;;;8.82;;
62673;SDS011;62269;47.594;17.638;2023-06-10T00:49:07;9.85;;;8.75;;
62673;SDS011;62269;47.594;17.638;2023-06-10T00:50:05;11.05;;;8.82;;
62673;SDS011;62269;47.594;17.638;2023-06-10T00:51:03;11.57;;;8.82;;
62673;SDS011;62269;47.594;17.638;2023-06-10T00:52:02;10.25;;;8.88;;
62673;SDS011;62269;47.594;17.638;2023-06-10T00:53:00;11.70;;;9.10;;
62673;SDS011;62269;47.594;17.638;2023-06-10T00:53:58;14.48;;;9.00;;
62673;SDS011;62269;47.594;17.638;2023-06-10T00:54:55;9.43;;;8.20;;
62673;SDS011;62269;47.594;17.638;2023-06-10T00:55:52;9.85;;;8.90;;
62673;SDS011;62269;47.594;17.638;2023-06-10T00:56:50;14.13;;;9.30;;
62673;SDS011;62269;47.594;17.638;2023-06-10T00:57:47;10.40;;;8.35;;
62673;SDS011;62269;47.594;17.638;2023-06-10T00:58:44;11.60;;;8.52;;
62673;SDS011;62269;47.594;17.638;2023-06-10T00:59:42;9.32;;;8.38;;
62673;SDS011;62269;47.594;17.638;2023-06-10T01:00:44;14.18;;;8.93;;
62673;SDS011;62269;47.594;17.638;2023-06-10T01:01:41;11.95;;;9.35;;
62673;SDS011;62269;47.594;17.638;2023-06-10T01:02:40;11.05;;;9.65;;
62673;SDS011;62269;47.594;17.638;2023-06-10T01:03:37;10.57;;;8.35;;
62673;SDS011;62269;47.594;17.638;2023-06-10T01:04:35;10.98;;;9.18;;
62673;SDS011;62269;47.594;17.638;2023-06-10T01:05:34;11.25;;;9.00;;
62673;SDS011;62269;47.594;17.638;2023-06-10T01:07:54;16.95;;;9.40;;
62673;SDS011;62269;47.594;17.638;2023-06-10T01:09:10;13.32;;;8.43;;
62673;SDS011;62269;47.594;17.638;2023-06-10T01:10:18;15.23;;;9.07;;
62673;SDS011;62269;47.594;17.638;2023-06-10T01:11:19;17.67;;;9.18;;
62673;SDS011;62269;47.594;17.638;2023-06-10T01:13:23;11.57;;;9.07;;
62673;SDS011;62269;47.594;17.638;2023-06-10T01:14:25;13.13;;;9.52;;
62673;SDS011;62269;47.594;17.638;2023-06-10T01:15:23;12.23;;;9.02;;
62673;SDS011;62269;47.594;17.638;2023-06-10T01:16:20;14.13;;;9.30;;
62673;SDS011;62269;47.594;17.638;2023-06-10T01:17:18;10.75;;;9.02;;
62673;SDS011;62269;47.594;17.638;2023-06-10T01:18:15;10.65;;;9.02;;
62673;SDS011;62269;47.594;17.638;2023-06-10T01:19:13;11.23;;;9.00;;
62673;SDS011;62269;47.594;17.638;2023-06-10T01:20:11;14.27;;;9.50;;
62673;SDS011;62269;47.594;17.638;2023-06-10T01:21:12;11.45;;;9.20;;
62673;SDS011;62269;47.594;17.638;2023-06-10T01:22:10;12.00;;;8.45;;
62673;SDS011;62269;47.594;17.638;2023-06-10T01:23:07;10.27;;;8.80;;
62673;SDS011;62269;47.594;17.638;2023-06-10T01:24:05;9.98;;;8.48;;
62673;SDS011;62269;47.594;17.638;2023-06-10T01:25:07;10.48;;;8.85;;
62673;SDS011;62269;47.594;17.638;2023-06-10T01:26:06;12.63;;;9.07;;
62673;SDS011;62269;47.594;17.638;2023-06-10T01:27:08;11.77;;;9.07;;
62673;SDS011;62269;47.594;17.638;2023-06-10T01:28:24;12.68;;;9.50;;
62673;SDS011;62269;47.594;17.638;2023-06-10T01:29:45;10.95;;;9.48;;
62673;SDS011;62269;47.594;17.638;2023-06-10T01:32:15;10.80;;;9.23;;
62673;SDS011;62269;47.594;17.638;2023-06-10T01:33:17;10.75;;;9.35;;
62673;SDS011;62269;47.594;17.638;2023-06-10T01:34:17;18.27;;;9.35;;
62673;SDS011;62269;47.594;17.638;2023-06-10T01:35:15;9.13;;;8.23;;
62673;SDS011;62269;47.594;17.638;2023-06-10T01:36:15;10.73;;;8.57;;
62673;SDS011;62269;47.594;17.638;2023-06-10T01:37:13;12.45;;;8.63;;
62673;SDS011;62269;47.594;17.638;2023-06-10T01:38:12;10.65;;;8.38;;
62673;SDS011;62269;47.594;17.638;2023-06-10T01:39:11;12.88;;;9.02;;
62673;SDS011;62269;47.594;17.638;2023-06-10T01:40:08;9.93;;;8.93;;
62673;SDS011;62269;47.594;17.638;2023-06-10T01:41:06;19.75;;;9.70;;
62673;SDS011;62269;47.594;17.638;2023-06-10T01:42:03;13.95;;;9.50;;
62673;SDS011;62269;47.594;17.638;2023-06-10T01:43:01;10.73;;;9.63;;
62673;SDS011;62269;47.594;17.638;2023-06-10T01:43:58;11.45;;;9.25;;
62673;SDS011;62269;47.594;17.638;2023-06-10T01:44:55;12.88;;;9.50;;
62673;SDS011;62269;47.594;17.638;2023-06-10T01:45:52;12.25;;;9.05;;
62673;SDS011;62269;47.594;17.638;2023-06-10T01:46:49;10.05;;;8.57;;
62673;SDS011;62269;47.594;17.638;2023-06-10T01:47:46;12.37;;;10.25;;
62673;SDS011;62269;47.594;17.638;2023-06-10T01:48:44;15.55;;;9.48;;
62673;SDS011;62269;47.594;17.638;2023-06-10T01:49:41;12.63;;;9.77;;
62673;SDS011;62269;47.594;17.638;2023-06-10T01:50:38;13.75;;;9.35;;
62673;SDS011;62269;47.594;17.638;2023-06-10T01:51:35;14.43;;;10.27;;
62673;SDS011;62269;47.594;17.638;2023-06-10T01:52:32;11.75;;;9.98;;
62673;SDS011;62269;47.594;17.638;2023-06-10T01:53:29;11.12;;;10.02;;
62673;SDS011;62269;47.594;17.638;2023-06-10T01:54:26;11.02;;;9.70;;
62673;SDS011;62269;47.594;17.638;2023-06-10T01:55:23;11.45;;;9.63;;
62673;SDS011;62269;47.594;17.638;2023-06-10T01:56:20;11.25;;;10.05;;
62673;SDS011;62269;47.594;17.638;2023-06-10T01:57:18;13.13;;;10.73;;
62673;SDS011;62269;47.594;17.638;2023-06-10T01:58:15;13.50;;;9.52;;
62673;SDS011;62269;47.594;17.638;2023-06-10T01:59:12;10.55;;;9.40;;
62673;SDS011;62269;47.594;17.638;2023-06-10T02:00:09;14.07;;;9.48;;
62673;SDS011;62269;47.594;17.638;2023-06-10T02:01:06;13.77;;;9.85;;
62673;SDS011;62269;47.594;17.638;2023-06-10T02:02:04;15.65;;;10.40;;
62673;SDS011;62269;47.594;17.638;2023-06-10T02:03:01;11.23;;;9.75;;
62673;SDS011;62269;47.594;17.638;2023-06-10T02:03:58;15.48;;;9.98;;
62673;SDS011;62269;47.594;17.638;2023-06-10T02:04:56;13.52;;;9.18;;
62673;SDS011;62269;47.594;17.638;2023-06-10T02:05:53;12.45;;;9.85;;
62673;SDS011;62269;47.594;17.638;2023-06-10T02:06:50;13.00;;;10.15;;
62673;SDS011;62269;47.594;17.638;2023-06-10T02:07:48;15.15;;;10.07;;
62673;SDS011;62269;47.594;17.638;2023-06-10T02:08:45;15.95;;;10.10;;
62673;SDS011;62269;47.594;17.638;2023-06-10T02:09:42;12.82;;;10.10;;
62673;SDS011;62269;47.594;17.638;2023-06-10T02:10:39;11.63;;;9.57;;
62673;SDS011;62269;47.594;17.638;2023-06-10T02:11:38;11.98;;;9.65;;
62673;SDS011;62269;47.594;17.638;2023-06-10T02:12:35;14.77;;;9.63;;
62673;SDS011;62269;47.594;17.638;2023-06-10T02:13:32;12.35;;;9.90;;
62673;SDS011;62269;47.594;17.638;2023-06-10T02:14:29;13.52;;;10.77;;
62673;SDS011;62269;47.594;17.638;2023-06-10T02:15:26;16.08;;;9.80;;
62673;SDS011;62269;47.594;17.638;2023-06-10T02:16:23;11.93;;;9.77;;
62673;SDS011;62269;47.594;17.638;2023-06-10T02:17:20;12.77;;;9.60;;
62673;SDS011;62269;47.594;17.638;2023-06-10T02:18:17;12.32;;;10.50;;
62673;SDS011;62269;47.594;17.638;2023-06-10T02:19:17;12.43;;;9.43;;
62673;SDS011;62269;47.594;17.638;2023-06-10T02:20:15;13.57;;;9.95;;
62673;SDS011;62269;47.594;17.638;2023-06-10T02:21:12;15.32;;;9.52;;
62673;SDS011;62269;47.594;17.638;2023-06-10T02:22:09;12.52;;;9.80;;
62673;SDS011;62269;47.594;17.638;2023-06-10T02:23:06;11.77;;;9.55;;
62673;SDS011;62269;47.594;17.638;2023-06-10T02:24:03;14.95;;;9.93;;
62673;SDS011;62269;47.594;17.638;2023-06-10T02:25:01;12.32;;;10.00;;
62673;SDS011;62269;47.594;17.638;2023-06-10T02:25:58;14.30;;;9.93;;
62673;SDS011;62269;47.594;17.638;2023-06-10T02:26:55;19.67;;;10.98;;
62673;SDS011;62269;47.594;17.638;2023-06-10T02:27:52;12.82;;;10.65;;
62673;SDS011;62269;47.594;17.638;2023-06-10T02:28:49;12.35;;;10.15;;
62673;SDS011;62269;47.594;17.638;2023-06-10T02:29:46;14.55;;;10.10;;
62673;SDS011;62269;47.594;17.638;2023-06-10T02:30:43;16.52;;;10.93;;
62673;SDS011;62269;47.594;17.638;2023-06-10T02:31:40;11.15;;;9.95;;
62673;SDS011;62269;47.594;17.638;2023-06-10T02:32:37;15.05;;;10.27;;
62673;SDS011;62269;47.594;17.638;2023-06-10T02:33:34;16.00;;;9.20;;
62673;SDS011;62269;47.594;17.638;2023-06-10T02:34:31;11.77;;;9.65;;
62673;SDS011;62269;47.594;17.638;2023-06-10T02:35:28;11.93;;;9.88;;
62673;SDS011;62269;47.594;17.638;2023-06-10T02:36:25;12.70;;;10.23;;
62673;SDS011;62269;47.594;17.638;2023-06-10T02:37:24;13.15;;;9.70;;
62673;SDS011;62269;47.594;17.638;2023-06-10T02:38:21;12.93;;;10.10;;
62673;SDS011;62269;47.594;17.638;2023-06-10T02:39:18;14.95;;;10.32;;
62673;SDS011;62269;47.594;17.638;2023-06-10T02:40:15;11.75;;;9.63;;
62673;SDS011;62269;47.594;17.638;2023-06-10T02:41:12;17.50;;;9.95;;
62673;SDS011;62269;47.594;17.638;2023-06-10T02:42:09;12.60;;;10.23;;
62673;SDS011;62269;47.594;17.638;2023-06-10T02:43:07;17.48;;;10.60;;
62673;SDS011;62269;47.594;17.638;2023-06-10T02:44:04;13.80;;;9.90;;
62673;SDS011;62269;47.594;17.638;2023-06-10T02:45:01;11.68;;;10.18;;
62673;SDS011;62269;47.594;17.638;2023-06-10T02:45:58;12.75;;;10.93;;
62673;SDS011;62269;47.594;17.638;2023-06-10T02:46:55;15.98;;;10.20;;
62673;SDS011;62269;47.594;17.638;2023-06-10T02:47:52;12.18;;;10.68;;
62673;SDS011;62269;47.594;17.638;2023-06-10T02:48:49;16.40;;;10.55;;
62673;SDS011;62269;47.594;17.638;2023-06-10T02:49:48;14.30;;;10.35;;
62673;SDS011;62269;47.594;17.638;2023-06-10T02:50:45;17.75;;;10.82;;
62673;SDS011;62269;47.594;17.638;2023-06-10T02:51:42;11.23;;;10.02;;
62673;SDS011;62269;47.594;17.638;2023-06-10T02:52:39;12.63;;;10.63;;
62673;SDS011;62269;47.594;17.638;2023-06-10T02:53:36;11.23;;;9.93;;
62673;SDS011;62269;47.594;17.638;2023-06-10T02:54:33;10.95;;;9.45;;
62673;SDS011;62269;47.594;17.638;2023-06-10T02:55:30;13.07;;;9.35;;
62673;SDS011;62269;47.594;17.638;2023-06-10T02:56:27;14.05;;;10.65;;
62673;SDS011;62269;47.594;17.638;2023-06-10T02:57:24;11.85;;;9.60;;
62673;SDS011;62269;47.594;17.638;2023-06-10T02:58:21;17.75;;;9.90;;
62673;SDS011;62269;47.594;17.638;2023-06-10T02:59:18;13.50;;;10.05;;
62673;SDS011;62269;47.594;17.638;2023-06-10T03:00:16;12.98;;;9.90;;
62673;SDS011;62269;47.594;17.638;2023-06-10T03:01:13;15.43;;;11.32;;
62673;SDS011;62269;47.594;17.638;2023-06-10T03:02:10;13.80;;;10.45;;
62673;SDS011;62269;47.594;17.638;2023-06-10T03:03:08;13.40;;;10.18;;
62673;SDS011;62269;47.594;17.638;2023-06-10T03:04:07;12.32;;;10.48;;
62673;SDS011;62269;47.594;17.638;2023-06-10T03:05:05;14.07;;;10.52;;
62673;SDS011;62269;47.594;17.638;2023-06-10T03:06:08;16.80;;;11.52;;
62673;SDS011;62269;47.594;17.638;2023-06-10T03:07:06;12.15;;;10.85;;
62673;SDS011;62269;47.594;17.638;2023-06-10T03:08:03;14.68;;;10.82;;
62673;SDS011;62269;47.594;17.638;2023-06-10T03:09:01;13.15;;;11.07;;
62673;SDS011;62269;47.594;17.638;2023-06-10T03:10:00;19.77;;;11.70;;
62673;SDS011;62269;47.594;17.638;2023-06-10T03:10:57;13.25;;;10.48;;
62673;SDS011;62269;47.594;17.638;2023-06-10T03:11:54;14.07;;;11.18;;
62673;SDS011;62269;47.594;17.638;2023-06-10T03:12:52;16.58;;;11.75;;
62673;SDS011;62269;47.594;17.638;2023-06-10T03:13:49;14.60;;;12.07;;
62673;SDS011;62269;47.594;17.638;2023-06-10T03:14:47;18.60;;;14.73;;
62673;SDS011;62269;47.594;17.638;2023-06-10T03:15:44;16.35;;;11.82;;
62673;SDS011;62269;47.594;17.638;2023-06-10T03:16:42;16.05;;;11.63;;
62673;SDS011;62269;47.594;17.638;2023-06-10T03:17:40;16.67;;;11.73;;
62673;SDS011;62269;47.594;17.638;2023-06-10T03:18:37;14.07;;;12.10;;
62673;SDS011;62269;47.594;17.638;2023-06-10T03:19:35;17.73;;;12.70;;
62673;SDS011;62269;47.594;17.638;2023-06-10T03:20:34;17.25;;;11.45;;
62673;SDS011;62269;47.594;17.638;2023-06-10T03:21:34;14.63;;;12.63;;
62673;SDS011;62269;47.594;17.638;2023-06-10T03:22:31;14.48;;;11.77;;
62673;SDS011;62269;47.594;17.638;2023-06-10T03:23:28;21.55;;;14.95;;
62673;SDS011;62269;47.594;17.638;2023-06-10T03:24:25;15.75;;;12.95;;
62673;SDS011;62269;47.594;17.638;2023-06-10T03:25:22;13.93;;;11.60;;
62673;SDS011;62269;47.594;17.638;2023-06-10T03:26:19;16.00;;;12.20;;
62673;SDS011;62269;47.594;17.638;2023-06-10T03:27:18;15.27;;;11.75;;
62673;SDS011;62269;47.594;17.638;2023-06-10T03:28:15;16.40;;;12.45;;
62673;SDS011;62269;47.594;17.638;2023-06-10T03:29:12;14.35;;;12.65;;
62673;SDS011;62269;47.594;17.638;2023-06-10T03:30:09;13.68;;;11.90;;
62673;SDS011;62269;47.594;17.638;2023-06-10T03:31:06;14.90;;;12.18;;
62673;SDS011;62269;47.594;17.638;2023-06-10T03:32:04;15.60;;;12.73;;
62673;SDS011;62269;47.594;17.638;2023-06-10T03:33:01;15.43;;;12.52;;
62673;SDS011;62269;47.594;17.638;2023-06-10T03:33:58;15.48;;;12.52;;
62673;SDS011;62269;47.594;17.638;2023-06-10T03:34:55;15.90;;;12.05;;
62673;SDS011;62269;47.594;17.638;2023-06-10T03:35:53;13.70;;;11.77;;
62673;SDS011;62269;47.594;17.638;2023-06-10T03:36:50;13.02;;;11.45;;
62673;SDS011;62269;47.594;17.638;2023-06-10T03:37:47;13.82;;;12.18;;
62673;SDS011;62269;47.594;17.638;2023-06-10T03:38:44;17.42;;;12.50;;
62673;SDS011;62269;47.594;17.638;2023-06-10T03:39:41;14.02;;;11.43;;
62673;SDS011;62269;47.594;17.638;2023-06-10T03:40:38;15.10;;;11.93;;
62673;SDS011;62269;47.594;17.638;2023-06-10T03:41:35;13.55;;;10.38;;
62673;SDS011;62269;47.594;17.638;2023-06-10T03:42:33;13.68;;;11.65;;
62673;SDS011;62269;47.594;17.638;2023-06-10T03:43:30;13.15;;;10.60;;
62673;SDS011;62269;47.594;17.638;2023-06-10T03:44:27;17.30;;;12.18;;
62673;SDS011;62269;47.594;17.638;2023-06-10T03:45:24;17.40;;;12.90;;
62673;SDS011;62269;47.594;17.638;2023-06-10T03:46:24;15.20;;;12.88;;
62673;SDS011;62269;47.594;17.638;2023-06-10T03:47:21;16.70;;;11.73;;
62673;SDS011;62269;47.594;17.638;2023-06-10T03:48:18;14.43;;;11.00;;
62673;SDS011;62269;47.594;17.638;2023-06-10T03:49:15;18.50;;;11.85;;
62673;SDS011;62269;47.594;17.638;2023-06-10T03:50:13;16.40;;;11.23;;
62673;SDS011;62269;47.594;17.638;2023-06-10T03:51:10;17.87;;;14.07;;
62673;SDS011;62269;47.594;17.638;2023-06-10T03:52:07;18.67;;;12.77;;
62673;SDS011;62269;47.594;17.638;2023-06-10T03:53:04;18.62;;;14.87;;
62673;SDS011;62269;47.594;17.638;2023-06-10T03:54:01;20.40;;;17.52;;
62673;SDS011;62269;47.594;17.638;2023-06-10T03:54:59;21.85;;;17.75;;
62673;SDS011;62269;47.594;17.638;2023-06-10T03:55:56;24.58;;;16.75;;
62673;SDS011;62269;47.594;17.638;2023-06-10T03:56:54;21.58;;;17.20;;
62673;SDS011;62269;47.594;17.638;2023-06-10T03:57:51;21.80;;;17.55;;
62673;SDS011;62269;47.594;17.638;2023-06-10T03:58:48;24.48;;;17.23;;
62673;SDS011;62269;47.594;17.638;2023-06-10T03:59:45;24.50;;;17.98;;
62673;SDS011;62269;47.594;17.638;2023-06-10T04:00:42;24.17;;;18.08;;
62673;SDS011;62269;47.594;17.638;2023-06-10T04:01:39;27.35;;;19.08;;
62673;SDS011;62269;47.594;17.638;2023-06-10T04:02:38;23.25;;;18.05;;
62673;SDS011;62269;47.594;17.638;2023-06-10T04:03:43;26.15;;;18.50;;
62673;SDS011;62269;47.594;17.638;2023-06-10T04:04:40;28.38;;;19.37;;
62673;SDS011;62269;47.594;17.638;2023-06-10T04:05:38;31.98;;;20.62;;
62673;SDS011;62269;47.594;17.638;2023-06-10T04:06:35;28.60;;;19.50;;
62673;SDS011;62269;47.594;17.638;2023-06-10T04:07:33;29.30;;;19.50;;
62673;SDS011;62269;47.594;17.638;2023-06-10T04:08:30;28.05;;;20.45;;
62673;SDS011;62269;47.594;17.638;2023-06-10T04:09:29;25.25;;;19.52;;
62673;SDS011;62269;47.594;17.638;2023-06-10T04:10:26;24.87;;;19.05;;
62673;SDS011;62269;47.594;17.638;2023-06-10T04:11:26;30.15;;;19.33;;
62673;SDS011;62269;47.594;17.638;2023-06-10T04:12:23;35.42;;;20.33;;
62673;SDS011;62269;47.594;17.638;2023-06-10T04:13:20;39.17;;;20.35;;
62673;SDS011;62269;47.594;17.638;2023-06-10T04:14:17;29.63;;;19.75;;
62673;SDS011;62269;47.594;17.638;2023-06-10T04:15:14;24.90;;;19.15;;
62673;SDS011;62269;47.594;17.638;2023-06-10T04:16:11;29.90;;;19.02;;
62673;SDS011;62269;47.594;17.638;2023-06-10T04:17:08;28.50;;;19.37;;
62673;SDS011;62269;47.594;17.638;2023-06-10T04:18:06;24.60;;;18.85;;
62673;SDS011;62269;47.594;17.638;2023-06-10T04:19:03;28.60;;;19.45;;
62673;SDS011;62269;47.594;17.638;2023-06-10T04:20:00;30.42;;;20.15;;
62673;SDS011;62269;47.594;17.638;2023-06-10T04:20:57;24.23;;;18.20;;
62673;SDS011;62269;47.594;17.638;2023-06-10T04:21:54;24.00;;;18.85;;
62673;SDS011;62269;47.594;17.638;2023-06-10T04:22:51;27.48;;;19.30;;
62673;SDS011;62269;47.594;17.638;2023-06-10T04:23:48;29.75;;;19.20;;
62673;SDS011;62269;47.594;17.638;2023-06-10T04:24:46;24.70;;;19.17;;
62673;SDS011;62269;47.594;17.638;2023-06-10T04:25:43;24.05;;;19.52;;
62673;SDS011;62269;47.594;17.638;2023-06-10T04:26:40;22.48;;;17.67;;
62673;SDS011;62269;47.594;17.638;2023-06-10T04:27:37;24.87;;;18.08;;
62673;SDS011;62269;47.594;17.638;2023-06-10T04:28:34;24.67;;;18.95;;
62673;SDS011;62269;47.594;17.638;2023-06-10T04:29:32;28.30;;;19.73;;
62673;SDS011;62269;47.594;17.638;2023-06-10T04:30:29;24.37;;;18.98;;
62673;SDS011;62269;47.594;17.638;2023-06-10T04:31:27;31.40;;;19.55;;
62673;SDS011;62269;47.594;17.638;2023-06-10T04:32:24;30.95;;;19.83;;
62673;SDS011;62269;47.594;17.638;2023-06-10T04:33:22;30.30;;;19.42;;
62673;SDS011;62269;47.594;17.638;2023-06-10T04:34:19;34.20;;;20.65;;
62673;SDS011;62269;47.594;17.638;2023-06-10T04:35:16;33.25;;;20.05;;
62673;SDS011;62269;47.594;17.638;2023-06-10T04:36:13;29.73;;;20.33;;
62673;SDS011;62269;47.594;17.638;2023-06-10T04:37:11;32.63;;;20.73;;
62673;SDS011;62269;47.594;17.638;2023-06-10T04:38:07;32.78;;;19.70;;
62673;SDS011;62269;47.594;17.638;2023-06-10T04:39:04;26.40;;;19.20;;
62673;SDS011;62269;47.594;17.638;2023-06-10T04:40:04;27.23;;;18.85;;
62673;SDS011;62269;47.594;17.638;2023-06-10T04:41:02;27.60;;;19.90;;
62673;SDS011;62269;47.594;17.638;2023-06-10T04:41:59;24.25;;;18.92;;
62673;SDS011;62269;47.594;17.638;2023-06-10T04:42:57;27.65;;;18.75;;
62673;SDS011;62269;47.594;17.638;2023-06-10T04:43:54;25.33;;;19.05;;
62673;SDS011;62269;47.594;17.638;2023-06-10T04:44:51;26.85;;;18.60;;
62673;SDS011;62269;47.594;17.638;2023-06-10T04:45:48;25.98;;;17.95;;
62673;SDS011;62269;47.594;17.638;2023-06-10T04:46:45;25.12;;;19.35;;
62673;SDS011;62269;47.594;17.638;2023-06-10T04:47:42;27.40;;;19.15;;
62673;SDS011;62269;47.594;17.638;2023-06-10T04:48:40;23.87;;;18.62;;
62673;SDS011;62269;47.594;17.638;2023-06-10T04:49:38;21.10;;;17.75;;
62673;SDS011;62269;47.594;17.638;2023-06-10T04:50:35;21.40;;;17.52;;
62673;SDS011;62269;47.594;17.638;2023-06-10T04:51:33;25.45;;;18.73;;
62673;SDS011;62269;47.594;17.638;2023-06-10T04:52:30;25.20;;;18.05;;
62673;SDS011;62269;47.594;17.638;2023-06-10T04:53:27;25.48;;;17.75;;
62673;SDS011;62269;47.594;17.638;2023-06-10T04:54:25;21.77;;;17.08;;
62673;SDS011;62269;47.594;17.638;2023-06-10T04:55:22;24.87;;;18.58;;
62673;SDS011;62269;47.594;17.638;2023-06-10T04:56:19;23.92;;;17.85;;
62673;SDS011;62269;47.594;17.638;2023-06-10T04:57:16;23.58;;;17.55;;
62673;SDS011;62269;47.594;17.638;2023-06-10T04:58:14;21.95;;;18.25;;
62673;SDS011;62269;47.594;17.638;2023-06-10T04:59:11;26.37;;;18.73;;
62673;SDS011;62269;47.594;17.638;2023-06-10T05:00:08;24.65;;;18.25;;
62673;SDS011;62269;47.594;17.638;2023-06-10T05:01:06;25.55;;;17.67;;
62673;SDS011;62269;47.594;17.638;2023-06-10T05:02:03;22.25;;;17.15;;
62673;SDS011;62269;47.594;17.638;2023-06-10T05:03:01;26.60;;;18.15;;
62673;SDS011;62269;47.594;17.638;2023-06-10T05:03:58;22.70;;;17.25;;
62673;SDS011;62269;47.594;17.638;2023-06-10T05:04:55;27.33;;;18.05;;
62673;SDS011;62269;47.594;17.638;2023-06-10T05:05:54;23.35;;;17.77;;
62673;SDS011;62269;47.594;17.638;2023-06-10T05:06:51;22.08;;;17.45;;
62673;SDS011;62269;47.594;17.638;2023-06-10T05:07:48;20.20;;;17.73;;
62673;SDS011;62269;47.594;17.638;2023-06-10T05:08:45;24.77;;;17.37;;
62673;SDS011;62269;47.594;17.638;2023-06-10T05:09:42;23.98;;;17.67;;
62673;SDS011;62269;47.594;17.638;2023-06-10T05:10:39;24.20;;;17.33;;
62673;SDS011;62269;47.594;17.638;2023-06-10T05:11:37;22.85;;;17.00;;
62673;SDS011;62269;47.594;17.638;2023-06-10T05:12:34;24.80;;;18.75;;
62673;SDS011;62269;47.594;17.638;2023-06-10T05:13:31;22.70;;;16.92;;
62673;SDS011;62269;47.594;17.638;2023-06-10T05:14:28;22.83;;;18.02;;
62673;SDS011;62269;47.594;17.638;2023-06-10T05:15:25;22.40;;;16.70;;
62673;SDS011;62269;47.594;17.638;2023-06-10T05:16:22;23.45;;;18.02;;
62673;SDS011;62269;47.594;17.638;2023-06-10T05:17:19;25.05;;;17.73;;
62673;SDS011;62269;47.594;17.638;2023-06-10T05:18:16;23.25;;;18.08;;
62673;SDS011;62269;47.594;17.638;2023-06-10T05:19:13;22.52;;;17.48;;
62673;SDS011;62269;47.594;17.638;2023-06-10T05:20:10;23.85;;;18.02;;
62673;SDS011;62269;47.594;17.638;2023-06-10T05:21:08;21.12;;;16.25;;
62673;SDS011;62269;47.594;17.638;2023-06-10T05:22:05;24.00;;;17.12;;
62673;SDS011;62269;47.594;17.638;2023-06-10T05:23:02;18.83;;;15.95;;
62673;SDS011;62269;47.594;17.638;2023-06-10T05:23:59;20.20;;;16.12;;
62673;SDS011;62269;47.594;17.638;2023-06-10T05:24:56;23.62;;;16.27;;
62673;SDS011;62269;47.594;17.638;2023-06-10T05:25:54;24.67;;;16.92;;
62673;SDS011;62269;47.594;17.638;2023-06-10T05:26:51;19.95;;;16.10;;
62673;SDS011;62269;47.594;17.638;2023-06-10T05:27:48;19.87;;;16.77;;
62673;SDS011;62269;47.594;17.638;2023-06-10T05:28:46;26.02;;;16.27;;
62673;SDS011;62269;47.594;17.638;2023-06-10T05:29:42;18.80;;;15.13;;
62673;SDS011;62269;47.594;17.638;2023-06-10T05:30:40;21.17;;;15.63;;
62673;SDS011;62269;47.594;17.638;2023-06-10T05:31:37;16.60;;;14.65;;
62673;SDS011;62269;47.594;17.638;2023-06-10T05:32:34;20.42;;;16.20;;
62673;SDS011;62269;47.594;17.638;2023-06-10T05:33:31;18.27;;;15.18;;
62673;SDS011;62269;47.594;17.638;2023-06-10T05:34:28;20.27;;;16.08;;
62673;SDS011;62269;47.594;17.638;2023-06-10T05:36:25;18.48;;;15.50;;
62673;SDS011;62269;47.594;17.638;2023-06-10T05:37:23;18.70;;;14.87;;
62673;SDS011;62269;47.594;17.638;2023-06-10T05:38:20;17.37;;;15.57;;
62673;SDS011;62269;47.594;17.638;2023-06-10T05:39:17;18.50;;;14.82;;